Windsor Heights, Iowa
Current Conditions -  °F | °C
As of 8:54 PM on Friday 19 Dec 2014 (Local Time) from KDSM Reporting Station
Haze Haze  
Wind Chill: 24°   Ceiling: 900
Heat Index: 32°   Visibility: 5mi
Dew Point: 29°   Wind: 9mph
Humidity: 88%   Direction: 150°SSE
Pressure: 30.2"   Gusts: NA
Location:  41.5811°N, 93.6759°W
Report Text: KDSM 200254Z 15008KT 5SM BR OVC009 00/M02 A3020 RMK AO2 SLP236 T00001017 58002
Loading
Personal Weather Stations






























Interactive Weather Map New forecast layout! Learn more

10-Day Weather Forecast

Advertisements
Track Severe Weather on mobile